createdAt,value
2018-07-10T00:04:44.079Z,64.80
2018-07-10T00:09:58.577Z,64.80
2018-07-10T00:15:01.672Z,65.20
2018-07-10T00:20:04.675Z,65.00
2018-07-10T00:25:07.705Z,64.60
2018-07-10T00:30:10.744Z,64.40
2018-07-10T00:40:16.605Z,64.70
2018-07-10T00:45:19.662Z,65.00
2018-07-10T00:50:22.692Z,65.30
2018-07-10T00:55:25.691Z,65.20
2018-07-10T01:00:33.218Z,65.40
2018-07-10T01:05:36.271Z,65.70
2018-07-10T01:10:39.439Z,66.00
2018-07-10T01:15:42.455Z,67.40
2018-07-10T01:20:45.467Z,67.10
2018-07-10T01:25:48.446Z,67.70
2018-07-10T01:30:51.442Z,68.00
2018-07-10T01:35:54.690Z,68.00
2018-07-10T01:40:57.695Z,68.20
2018-07-10T01:46:00.860Z,67.90
2018-07-10T01:51:03.963Z,68.60
2018-07-10T01:56:06.984Z,68.70
2018-07-10T02:01:10.067Z,68.90
2018-07-10T02:06:13.080Z,68.90
2018-07-10T02:11:16.178Z,69.00
2018-07-10T02:16:19.178Z,68.80
2018-07-10T02:21:22.220Z,68.90
2018-07-10T02:26:26.417Z,69.10
2018-07-10T02:31:29.427Z,69.60
2018-07-10T02:36:32.462Z,69.70
2018-07-10T02:41:35.470Z,69.90
2018-07-10T02:46:38.836Z,70.20
2018-07-10T02:52:13.456Z,70.50
2018-07-10T02:57:16.460Z,70.60
2018-07-10T03:02:22.780Z,70.70
2018-07-10T03:07:27.114Z,70.90
2018-07-10T03:12:33.358Z,72.20
2018-07-10T03:17:36.383Z,72.60
2018-07-10T03:22:39.483Z,72.80
2018-07-10T03:27:42.518Z,72.70
2018-07-10T03:32:45.546Z,72.60
2018-07-10T03:37:48.831Z,72.80
2018-07-10T03:42:51.835Z,72.60
2018-07-10T03:47:55.207Z,72.40
2018-07-10T03:52:58.219Z,72.70
2018-07-10T03:58:01.232Z,72.90
2018-07-10T04:03:04.315Z,73.00
2018-07-10T04:08:08.047Z,73.50
2018-07-10T04:13:14.016Z,74.50
2018-07-10T04:18:20.795Z,75.20
2018-07-10T04:23:26.081Z,75.60
2018-07-10T04:28:32.347Z,75.60
2018-07-10T04:33:35.334Z,76.00
2018-07-10T04:38:38.340Z,75.80
2018-07-10T04:43:47.207Z,75.50
2018-07-10T04:48:55.106Z,76.40
2018-07-10T04:54:10.999Z,76.40
2018-07-10T04:59:14.219Z,76.50
2018-07-10T05:04:17.233Z,76.30
2018-07-10T05:09:20.432Z,75.50
2018-07-10T05:14:23.533Z,75.90
2018-07-10T05:19:26.666Z,75.90
2018-07-10T05:24:29.739Z,76.00
2018-07-10T05:29:32.848Z,75.50
2018-07-10T05:34:38.426Z,76.30
2018-07-10T05:39:41.497Z,76.30
2018-07-10T05:44:45.565Z,77.30
2018-07-10T05:49:49.105Z,76.10
2018-07-10T05:54:52.615Z,75.90
2018-07-10T05:59:55.682Z,74.90
2018-07-10T06:04:58.755Z,74.40
2018-07-10T06:10:01.789Z,74.20
2018-07-10T06:15:04.897Z,73.70
2018-07-10T06:20:07.886Z,74.10
2018-07-10T06:25:11.271Z,73.90
2018-07-10T06:30:14.302Z,74.50
2018-07-10T06:35:23.329Z,74.80
2018-07-10T06:40:26.766Z,73.70
2018-07-10T06:45:30.146Z,74.00
2018-07-10T06:50:35.129Z,72.90
2018-07-10T06:56:10.189Z,73.80
2018-07-10T07:01:14.302Z,74.00
2018-07-10T07:06:17.722Z,72.90
2018-07-10T07:11:21.336Z,72.40
2018-07-10T07:16:24.775Z,71.90
2018-07-10T07:21:28.175Z,72.00
2018-07-10T07:26:31.610Z,71.40
2018-07-10T07:31:35.150Z,71.30
2018-07-10T07:36:38.572Z,72.60
2018-07-10T07:41:42.001Z,72.00
2018-07-10T07:46:45.811Z,71.30
2018-07-10T07:51:49.238Z,71.00
2018-07-10T07:56:52.665Z,68.80
2018-07-10T08:01:56.214Z,69.00
2018-07-10T08:07:00.260Z,67.50
2018-07-10T08:12:03.599Z,67.90
2018-07-10T08:17:06.611Z,65.00
2018-07-10T08:22:10.136Z,67.00
2018-07-10T08:27:13.203Z,68.70
2018-07-10T08:32:16.216Z,68.70
2018-07-10T08:37:19.293Z,68.60
2018-07-10T08:42:22.304Z,67.90
2018-07-10T08:47:25.317Z,68.30
2018-07-10T08:52:28.350Z,67.40
2018-07-10T08:57:31.450Z,67.10
2018-07-10T09:02:34.752Z,65.70
2018-07-10T09:07:37.772Z,65.60
2018-07-10T09:12:40.795Z,66.10
2018-07-10T09:17:43.850Z,66.10
2018-07-10T09:22:46.873Z,63.90
2018-07-10T09:27:50.795Z,63.00
2018-07-10T09:32:53.814Z,61.50
2018-07-10T09:37:56.839Z,63.80
2018-07-10T09:43:02.496Z,62.20
2018-07-10T09:48:06.400Z,60.30
2018-07-10T09:53:09.841Z,59.70
2018-07-10T09:58:13.299Z,58.20
2018-07-10T10:03:16.514Z,56.90
2018-07-10T10:08:19.646Z,57.00
2018-07-10T10:13:22.659Z,56.30
2018-07-10T10:18:26.700Z,56.30
2018-07-10T10:23:30.369Z,58.60
2018-07-10T10:28:33.363Z,58.80
2018-07-10T10:33:36.367Z,59.30
2018-07-10T10:38:42.044Z,59.90
2018-07-10T10:43:46.294Z,59.60
2018-07-10T10:48:51.231Z,61.50
2018-07-10T10:53:57.004Z,62.40
2018-07-10T10:59:02.166Z,62.60
2018-07-10T11:04:05.252Z,62.40
2018-07-10T11:09:08.322Z,61.10
2018-07-10T11:14:11.402Z,59.90
2018-07-10T11:19:16.242Z,61.30
2018-07-10T11:24:19.366Z,62.20
2018-07-10T11:29:22.404Z,61.50
2018-07-10T11:34:25.515Z,63.40
2018-07-10T11:39:29.245Z,64.70
2018-07-10T11:44:32.397Z,64.70
2018-07-10T11:49:35.417Z,64.70
2018-07-10T11:54:38.579Z,61.80
2018-07-10T11:59:41.634Z,62.20
2018-07-10T12:04:44.758Z,60.70
2018-07-10T12:09:58.012Z,61.60
2018-07-10T12:15:01.051Z,62.00
2018-07-10T12:20:04.119Z,61.60
2018-07-10T12:25:07.647Z,61.70
2018-07-10T12:30:10.670Z,61.40
2018-07-10T12:35:13.741Z,61.90
2018-07-10T12:40:16.739Z,61.20
2018-07-10T12:45:19.764Z,60.60
2018-07-10T12:50:23.002Z,62.10
2018-07-10T12:55:26.883Z,62.30
2018-07-10T13:00:31.226Z,61.00
2018-07-10T13:05:45.725Z,60.40
2018-07-10T13:10:48.741Z,61.60
2018-07-10T13:15:51.793Z,60.90
2018-07-10T13:20:54.836Z,61.80
2018-07-10T13:25:58.025Z,60.10
2018-07-10T13:31:01.048Z,60.00
2018-07-10T13:36:04.106Z,61.60
2018-07-10T13:41:07.133Z,63.80
2018-07-10T13:46:10.211Z,63.40
2018-07-10T13:51:13.320Z,64.40
2018-07-10T13:56:16.335Z,63.70
2018-07-10T14:01:20.188Z,64.80
2018-07-10T14:06:23.240Z,64.30
2018-07-10T14:11:26.280Z,63.30
2018-07-10T14:16:29.295Z,63.90
2018-07-10T14:21:32.587Z,63.50
2018-07-10T14:26:35.659Z,63.80
2018-07-10T14:31:38.688Z,62.30
2018-07-10T14:36:41.691Z,62.20
2018-07-10T14:41:44.784Z,61.20
2018-07-10T14:46:48.318Z,60.90
2018-07-10T14:51:52.358Z,59.70
2018-07-10T14:56:55.432Z,59.70
2018-07-10T15:01:58.622Z,58.40
2018-07-10T15:07:01.656Z,58.00
2018-07-10T15:12:04.982Z,57.30
2018-07-10T15:17:13.552Z,56.80
2018-07-10T15:22:16.614Z,56.80
2018-07-10T15:27:19.620Z,57.80
2018-07-10T15:32:22.609Z,58.70
2018-07-10T15:37:25.794Z,58.20
2018-07-10T15:42:28.844Z,59.30
2018-07-10T15:47:31.855Z,59.00
2018-07-10T15:52:34.903Z,58.60
2018-07-10T15:57:37.955Z,59.00
2018-07-10T16:02:40.942Z,58.40
2018-07-10T16:07:43.947Z,59.20
2018-07-10T16:12:47.003Z,58.60
2018-07-10T16:17:50.011Z,58.60
2018-07-10T16:22:53.071Z,58.00
2018-07-10T16:32:59.014Z,58.00
2018-07-10T16:38:04.049Z,58.20
2018-07-10T16:43:12.590Z,57.50
2018-07-10T16:48:23.085Z,57.80
2018-07-10T16:53:30.683Z,57.80
2018-07-10T16:58:36.539Z,57.30
2018-07-10T17:03:39.792Z,58.30
2018-07-10T17:08:42.866Z,59.00
2018-07-10T17:13:46.196Z,59.10
2018-07-10T17:18:49.203Z,59.30
2018-07-10T17:23:53.418Z,59.80
2018-07-10T17:28:56.532Z,61.40
2018-07-10T17:33:59.618Z,62.40
2018-07-10T17:39:03.838Z,62.20
2018-07-10T17:44:08.640Z,62.40
2018-07-10T17:49:11.668Z,62.90
2018-07-10T17:54:14.857Z,63.00
2018-07-10T17:59:17.891Z,63.60
2018-07-10T18:04:20.911Z,64.20
2018-07-10T18:09:23.959Z,63.60
2018-07-10T18:14:27.045Z,64.50
2018-07-10T18:19:30.081Z,65.00
2018-07-10T18:24:33.227Z,64.80
2018-07-10T18:29:36.228Z,65.00
2018-07-10T18:34:39.351Z,65.50
2018-07-10T18:39:42.445Z,65.50
2018-07-10T18:44:45.540Z,66.60
2018-07-10T18:49:51.068Z,67.20
2018-07-10T18:54:54.483Z,67.50
2018-07-10T19:10:10.879Z,70.90
2018-07-10T19:15:13.920Z,71.00
2018-07-10T19:20:16.963Z,71.10
2018-07-10T19:25:20.148Z,71.50
2018-07-10T19:30:31.580Z,72.30
2018-07-10T19:35:35.039Z,72.60
2018-07-10T19:40:38.124Z,73.00
2018-07-10T19:45:42.222Z,73.60
2018-07-10T19:50:45.266Z,73.50
2018-07-10T19:55:48.285Z,73.60
2018-07-10T20:00:55.195Z,73.90
2018-07-10T20:06:03.968Z,74.10
2018-07-10T20:11:09.879Z,74.60
2018-07-10T20:16:21.903Z,74.80
2018-07-10T20:21:34.758Z,75.30
2018-07-10T20:26:49.309Z,75.70
2018-07-10T20:31:59.503Z,76.30
2018-07-10T20:37:02.520Z,76.30
2018-07-10T20:42:05.707Z,76.90
2018-07-10T20:47:08.914Z,77.10
2018-07-10T20:52:12.194Z,77.20
2018-07-10T20:57:23.806Z,78.00
2018-07-10T21:02:34.895Z,78.10
2018-07-10T21:07:48.556Z,78.40
2018-07-10T21:12:57.107Z,78.40
2018-07-10T21:18:06.319Z,78.10
2018-07-10T21:23:21.010Z,77.60
2018-07-10T21:28:31.015Z,77.50
2018-07-10T21:33:43.128Z,77.90
2018-07-10T21:39:01.566Z,77.90
2018-07-10T21:45:16.285Z,77.60
2018-07-10T21:50:25.373Z,78.10
2018-07-10T21:55:28.378Z,78.20
2018-07-10T22:00:42.901Z,79.90
2018-07-10T22:10:49.243Z,87.30
2018-07-10T22:15:52.253Z,90.00
2018-07-10T22:20:55.245Z,90.90
2018-07-10T22:25:58.246Z,91.50
2018-07-10T22:32:05.660Z,92.40
2018-07-10T22:37:08.760Z,93.00
2018-07-10T22:42:12.783Z,93.50
2018-07-10T22:47:17.362Z,93.90
2018-07-10T22:52:20.371Z,93.80
2018-07-10T22:57:23.374Z,94.30
2018-07-10T23:02:26.407Z,94.30
2018-07-10T23:07:29.481Z,94.50
2018-07-10T23:12:32.451Z,94.50
2018-07-10T23:17:35.458Z,94.70
2018-07-10T23:22:50.371Z,94.80
2018-07-10T23:27:59.644Z,95.20
2018-07-10T23:33:02.668Z,95.60
2018-07-10T23:38:09.632Z,96.10
2018-07-10T23:43:12.659Z,95.90
2018-07-10T23:48:16.659Z,96.20
2018-07-10T23:53:29.051Z,96.20
2018-07-10T23:58:32.305Z,96.50
